Time;durP1;ratioP1;P1;durP2;ratioP2;P2;SDS_P1;SDS_P2;PMS_P1;PMS_P2;Temp;Humidity;BMP_temperature;BMP_pressure;BME280_temperature;BME280_humidity;BME280_pressure;Samples;Min_cycle;Max_cycle;Signal;HPM_P1;HPM_P2
2022/07/22 00:01:34;;;;;;;11.30;2.90;;;15.80;99.90;;;;;;5050542;28;20051;-83
2022/07/22 00:04:01;;;;;;;21.60;3.50;;;15.80;99.90;;;;;;5050151;28;20099;-83
2022/07/22 00:06:27;;;;;;;16.90;3.17;;;15.70;99.90;;;;;;5050368;28;20575;-85
2022/07/22 00:08:52;;;;;;;28.08;3.97;;;15.70;99.90;;;;;;5050272;28;20063;-82
2022/07/22 00:11:18;;;;;;;14.43;4.15;;;15.70;99.90;;;;;;5050527;28;20128;-83
2022/07/22 00:13:45;;;;;;;16.52;3.25;;;15.90;99.90;;;;;;5057940;28;20060;-83
2022/07/22 00:16:12;;;;;;;13.27;2.53;;;15.60;99.90;;;;;;5070411;28;20141;-82
2022/07/22 00:18:38;;;;;;;12.57;2.58;;;15.60;99.90;;;;;;5070243;28;20084;-84
2022/07/22 00:21:04;;;;;;;17.05;2.88;;;15.60;99.90;;;;;;5069838;28;20091;-84
2022/07/22 00:23:30;;;;;;;20.00;3.72;;;15.60;99.90;;;;;;5070091;28;20066;-83
2022/07/22 00:25:56;;;;;;;14.93;2.80;;;15.50;99.90;;;;;;5061760;28;20045;-82
2022/07/22 00:28:22;;;;;;;18.25;2.53;;;15.60;99.90;;;;;;5050308;28;20148;-83
2022/07/22 00:30:48;;;;;;;11.50;2.05;;;15.70;99.90;;;;;;5050211;28;20049;-83
2022/07/22 00:33:14;;;;;;;24.83;2.88;;;15.60;99.90;;;;;;5050236;28;20078;-81
2022/07/22 00:35:39;;;;;;;18.88;3.50;;;15.60;99.90;;;;;;5049395;28;20037;-84
2022/07/22 00:38:05;;;;;;;16.23;2.65;;;15.90;99.90;;;;;;5050169;28;20131;-78
2022/07/22 00:40:31;;;;;;;24.13;3.13;;;15.60;99.90;;;;;;5048879;28;20411;-83
2022/07/22 00:42:57;;;;;;;14.07;2.47;;;15.50;99.90;;;;;;5050882;28;20094;-83
2022/07/22 00:45:22;;;;;;;14.20;2.78;;;15.50;99.90;;;;;;5069913;28;20494;-80
2022/07/22 00:47:48;;;;;;;15.70;2.47;;;15.50;99.90;;;;;;5069677;28;20408;-82
2022/07/22 00:50:14;;;;;;;13.32;2.40;;;15.50;99.90;;;;;;5069562;28;20097;-85
2022/07/22 00:52:41;;;;;;;11.38;2.40;;;15.50;99.90;;;;;;5069735;28;20454;-85
2022/07/22 00:55:08;;;;;;;22.13;3.05;;;15.50;99.90;;;;;;5070039;28;20041;-84
2022/07/22 00:57:33;;;;;;;12.25;2.65;;;15.50;99.90;;;;;;5068210;28;20079;-83
2022/07/22 01:00:00;;;;;;;18.90;2.78;;;15.60;99.90;;;;;;5069790;28;20076;-83
2022/07/22 01:02:25;;;;;;;22.40;3.72;;;15.50;99.90;;;;;;5069787;28;20062;-80
2022/07/22 01:04:51;;;;;;;14.00;3.08;;;15.50;99.90;;;;;;5069778;28;20483;-86
2022/07/22 01:07:17;;;;;;;16.10;2.05;;;15.70;99.90;;;;;;5069381;28;20052;-76
2022/07/22 01:09:44;;;;;;;18.67;3.38;;;15.40;99.90;;;;;;5070064;28;20488;-82
2022/07/22 01:12:10;;;;;;;14.27;2.42;;;15.40;99.90;;;;;;5057949;28;20057;-79
2022/07/22 01:14:36;;;;;;;10.27;2.28;;;15.50;99.90;;;;;;5049395;28;20088;-81
2022/07/22 01:17:03;;;;;;;14.95;2.28;;;15.30;99.90;;;;;;5049419;28;20082;-82
2022/07/22 01:19:28;;;;;;;20.25;3.05;;;15.40;99.90;;;;;;5049669;28;20041;-83
2022/07/22 01:21:55;;;;;;;17.23;2.03;;;15.60;99.90;;;;;;5049202;28;20048;-83
2022/07/22 01:24:21;;;;;;;15.80;2.25;;;15.30;99.90;;;;;;5049725;28;20052;-81
2022/07/22 01:26:46;;;;;;;15.95;2.83;;;15.30;99.90;;;;;;5064596;28;20407;-82
2022/07/22 01:29:12;;;;;;;17.70;2.85;;;15.50;99.90;;;;;;5069604;28;20048;-86
2022/07/22 01:31:38;;;;;;;13.60;2.30;;;15.30;99.90;;;;;;5069930;28;20047;-83
2022/07/22 01:34:03;;;;;;;13.68;1.80;;;15.30;99.90;;;;;;5069598;28;20041;-77
2022/07/22 01:36:29;;;;;;;8.15;2.08;;;15.30;99.90;;;;;;5069172;28;20049;-77
2022/07/22 01:38:55;;;;;;;16.80;1.80;;;15.30;99.90;;;;;;5068952;28;20056;-82
2022/07/22 01:41:21;;;;;;;16.73;2.08;;;15.30;99.90;;;;;;5069216;28;20455;-78
2022/07/22 01:43:46;;;;;;;20.35;1.90;;;15.20;99.90;;;;;;5068384;28;20055;-81
2022/07/22 01:46:16;;;;;;;12.65;2.25;;;15.20;99.90;;;;;;5069252;28;20488;-84
2022/07/22 01:48:42;;;;;;;11.98;1.80;;;15.20;99.90;;;;;;5072835;28;20067;-81
2022/07/22 01:51:08;;;;;;;10.38;1.67;;;15.30;99.90;;;;;;5071702;28;20056;-82
2022/07/22 01:53:34;;;;;;;17.80;2.35;;;15.50;99.90;;;;;;5068408;28;20578;-82
2022/07/22 01:55:59;;;;;;;16.05;2.22;;;15.20;99.90;;;;;;5053000;28;20400;-82
2022/07/22 01:58:25;;;;;;;14.15;2.53;;;15.40;99.90;;;;;;5051532;28;20051;-83
2022/07/22 02:00:51;;;;;;;11.73;1.80;;;15.40;99.90;;;;;;5052594;28;20033;-81
2022/07/22 02:03:16;;;;;;;20.67;1.92;;;15.20;99.90;;;;;;5068472;28;20060;-82
2022/07/22 02:05:42;;;;;;;12.40;2.38;;;15.20;99.90;;;;;;5072901;28;20045;-81
2022/07/22 02:08:10;;;;;;;20.25;2.33;;;15.30;99.90;;;;;;5065360;28;20815;-80
2022/07/22 02:10:36;;;;;;;14.82;3.03;;;15.50;99.90;;;;;;5053599;28;20079;-84
2022/07/22 02:13:03;;;;;;;14.32;1.85;;;15.30;99.90;;;;;;5056797;28;20051;-85
2022/07/22 02:15:29;;;;;;;13.35;2.05;;;15.20;99.90;;;;;;5070316;28;20044;-83
2022/07/22 02:17:54;;;;;;;21.38;2.20;;;15.30;99.90;;;;;;5072616;28;20045;-84
2022/07/22 02:20:20;;;;;;;19.70;2.33;;;15.30;99.90;;;;;;5072674;28;20123;-80
2022/07/22 02:22:46;;;;;;;9.95;2.08;;;15.20;99.90;;;;;;5071412;28;20093;-82
2022/07/22 02:25:13;;;;;;;14.13;2.78;;;15.20;99.90;;;;;;5051809;28;20106;-79
2022/07/22 02:27:40;;;;;;;13.45;1.90;;;15.20;99.90;;;;;;5070771;28;20040;-83
2022/07/22 02:30:08;;;;;;;11.52;1.75;;;15.20;99.90;;;;;;5072553;28;20045;-83
2022/07/22 02:32:34;;;;;;;13.77;1.73;;;15.20;99.90;;;;;;5071965;28;20045;-83
2022/07/22 02:34:59;;;;;;;13.82;2.53;;;15.50;99.90;;;;;;5069853;28;20097;-83
2022/07/22 02:37:25;;;;;;;10.95;1.98;;;15.40;99.90;;;;;;5052049;28;20037;-84
2022/07/22 02:39:50;;;;;;;15.20;2.28;;;15.20;99.90;;;;;;5051734;28;20056;-84
2022/07/22 02:42:17;;;;;;;15.90;2.25;;;15.20;99.90;;;;;;5052184;28;20063;-84
2022/07/22 02:44:42;;;;;;;20.73;2.15;;;15.20;99.90;;;;;;5052576;28;20381;-85
2022/07/22 02:47:08;;;;;;;13.52;2.00;;;15.20;99.90;;;;;;5052302;28;20167;-80
2022/07/22 02:49:34;;;;;;;11.82;2.15;;;15.40;99.90;;;;;;5052060;28;20044;-84
2022/07/22 02:52:00;;;;;;;14.30;1.88;;;15.40;99.90;;;;;;5051896;28;20080;-81
2022/07/22 02:54:25;;;;;;;13.18;1.98;;;15.20;99.90;;;;;;5051739;28;20049;-83
2022/07/22 02:56:51;;;;;;;21.65;2.00;;;15.20;99.90;;;;;;5064442;28;20037;-81
2022/07/22 02:59:17;;;;;;;17.60;2.15;;;15.20;99.90;;;;;;5071854;28;20036;-83
2022/07/22 03:01:43;;;;;;;20.52;1.92;;;15.20;99.90;;;;;;5054148;28;20488;-82
2022/07/22 03:04:09;;;;;;;9.88;2.00;;;15.20;99.90;;;;;;5051897;28;20400;-84
2022/07/22 03:06:34;;;;;;;15.07;2.17;;;15.20;99.90;;;;;;5051352;28;20045;-79
2022/07/22 03:09:00;;;;;;;13.15;2.03;;;15.30;99.90;;;;;;5064083;28;20060;-81
2022/07/22 03:11:26;;;;;;;7.97;1.73;;;15.10;99.90;;;;;;5051426;28;20114;-82
2022/07/22 03:13:51;;;;;;;15.93;1.85;;;15.20;99.90;;;;;;5051500;28;20060;-83
2022/07/22 03:16:17;;;;;;;16.55;2.10;;;15.30;99.90;;;;;;5051422;28;20364;-83
2022/07/22 03:18:43;;;;;;;11.55;1.65;;;15.20;99.90;;;;;;5051426;28;20087;-82
2022/07/22 03:21:08;;;;;;;13.13;2.28;;;15.20;99.90;;;;;;5051555;28;20052;-82
2022/07/22 03:23:34;;;;;;;6.47;1.20;;;15.10;99.90;;;;;;5051421;28;20780;-83
2022/07/22 03:25:59;;;;;;;14.00;1.80;;;15.10;99.90;;;;;;5050923;28;20048;-85
2022/07/22 03:28:27;;;;;;;14.20;1.60;;;15.10;99.90;;;;;;5051595;28;20099;-79
2022/07/22 03:30:54;;;;;;;19.05;1.92;;;15.20;99.90;;;;;;5049827;28;20223;-82
2022/07/22 03:33:19;;;;;;;11.15;1.73;;;15.10;99.90;;;;;;5051008;28;20044;-76
2022/07/22 03:35:45;;;;;;;11.38;2.17;;;15.10;99.90;;;;;;5051499;28;20136;-81
2022/07/22 03:38:11;;;;;;;10.27;1.85;;;15.10;99.90;;;;;;5057029;28;20043;-85
2022/07/22 03:40:37;;;;;;;8.30;2.03;;;15.10;99.90;;;;;;5070952;28;20147;-81
2022/07/22 03:43:02;;;;;;;13.00;1.85;;;15.10;99.90;;;;;;5069170;28;20098;-81
2022/07/22 03:45:28;;;;;;;15.18;1.73;;;15.10;99.90;;;;;;5070761;28;20102;-82
2022/07/22 03:47:57;;;;;;;6.32;1.40;;;15.10;99.90;;;;;;5070965;28;20044;-83
2022/07/22 03:50:24;;;;;;;14.13;2.00;;;15.10;99.90;;;;;;5069432;28;20498;-82
2022/07/22 03:52:50;;;;;;;11.63;1.75;;;15.10;99.90;;;;;;5070871;28;20079;-83
2022/07/22 03:55:15;;;;;;;10.75;1.90;;;15.00;99.90;;;;;;5070459;28;20088;-83
2022/07/22 03:57:41;;;;;;;10.05;1.85;;;15.00;99.90;;;;;;5070146;28;20052;-81
2022/07/22 04:00:07;;;;;;;10.20;1.58;;;15.00;99.90;;;;;;5070199;28;20044;-85
2022/07/22 04:02:33;;;;;;;8.63;1.48;;;15.00;99.90;;;;;;5068048;28;20094;-82
2022/07/22 04:04:59;;;;;;;11.10;2.70;;;15.00;99.90;;;;;;5070695;28;20442;-82
2022/07/22 04:07:24;;;;;;;9.88;1.95;;;15.00;99.90;;;;;;5067954;28;20036;-85
2022/07/22 04:09:50;;;;;;;10.57;1.75;;;15.00;99.90;;;;;;5050908;28;20044;-79
2022/07/22 04:12:16;;;;;;;13.38;1.58;;;15.00;99.90;;;;;;5054057;28;20767;-82
2022/07/22 04:14:41;;;;;;;8.93;2.00;;;15.00;99.90;;;;;;5070451;28;20085;-83
2022/07/22 04:17:07;;;;;;;5.82;1.23;;;15.00;99.90;;;;;;5070377;28;20057;-82
2022/07/22 04:19:33;;;;;;;11.30;1.80;;;15.00;99.90;;;;;;5057383;28;20048;-84
2022/07/22 04:21:59;;;;;;;10.32;1.80;;;15.00;99.90;;;;;;5050125;28;20049;-82
2022/07/22 04:24:25;;;;;;;7.95;1.63;;;15.00;99.90;;;;;;5050448;28;20098;-82
2022/07/22 04:26:50;;;;;;;6.68;1.67;;;15.10;99.90;;;;;;5050286;28;20049;-77
2022/07/22 04:29:16;;;;;;;9.48;1.73;;;15.00;99.90;;;;;;5050185;28;20199;-82
2022/07/22 04:31:42;;;;;;;8.95;1.27;;;15.10;99.90;;;;;;5050518;28;20132;-82
2022/07/22 04:34:07;;;;;;;9.80;2.08;;;15.00;99.90;;;;;;5050263;28;20494;-79
2022/07/22 04:36:33;;;;;;;9.38;1.45;;;15.00;99.90;;;;;;5065694;28;20052;-77
2022/07/22 04:38:59;;;;;;;7.00;1.25;;;15.00;99.90;;;;;;5070340;28;20454;-80
2022/07/22 04:41:25;;;;;;;9.68;1.70;;;15.10;99.90;;;;;;5070214;28;20040;-83
2022/07/22 04:43:51;;;;;;;15.30;1.65;;;15.00;99.90;;;;;;5069008;28;20396;-80
2022/07/22 04:46:16;;;;;;;7.30;1.63;;;15.10;99.90;;;;;;5069920;28;20043;-80
2022/07/22 04:48:42;;;;;;;13.00;2.30;;;15.10;99.90;;;;;;5070197;28;20033;-82
2022/07/22 04:51:08;;;;;;;9.30;1.70;;;15.10;99.90;;;;;;5070048;28;20063;-83
2022/07/22 04:53:34;;;;;;;7.57;1.75;;;15.10;99.90;;;;;;5065791;28;20036;-81
2022/07/22 04:55:59;;;;;;;10.23;1.10;;;15.10;99.90;;;;;;5049824;28;20164;-82
2022/07/22 04:58:25;;;;;;;8.45;1.42;;;15.10;99.90;;;;;;5067329;28;20119;-81
2022/07/22 05:00:51;;;;;;;4.85;1.13;;;15.30;99.90;;;;;;5069796;28;20040;-83
2022/07/22 05:03:17;;;;;;;9.20;1.65;;;15.10;99.90;;;;;;5069876;28;20048;-84
2022/07/22 05:05:42;;;;;;;8.40;1.50;;;15.20;99.90;;;;;;5070120;28;20083;-84
2022/07/22 05:08:08;;;;;;;6.18;1.40;;;15.20;99.90;;;;;;5064132;28;20075;-83
2022/07/22 05:10:34;;;;;;;8.75;1.55;;;15.20;99.90;;;;;;5050336;28;20415;-83
2022/07/22 05:12:59;;;;;;;6.22;1.75;;;15.20;99.90;;;;;;5049794;28;20095;-81
2022/07/22 05:15:25;;;;;;;5.70;1.35;;;15.30;99.90;;;;;;5049705;28;20131;-81
2022/07/22 05:17:51;;;;;;;6.80;1.55;;;15.30;99.90;;;;;;5064972;28;20053;-83
2022/07/22 05:20:17;;;;;;;5.75;1.58;;;15.30;99.90;;;;;;5070217;28;20036;-84
2022/07/22 05:22:43;;;;;;;10.18;1.20;;;15.40;99.90;;;;;;5074069;28;20083;-84
2022/07/22 05:25:09;;;;;;;7.20;1.77;;;15.40;99.90;;;;;;5054960;28;20092;-85
2022/07/22 05:27:34;;;;;;;8.43;1.38;;;15.40;99.90;;;;;;5052376;28;20057;-83
2022/07/22 05:30:01;;;;;;;8.75;1.13;;;15.40;99.90;;;;;;5053314;28;20478;-79
2022/07/22 05:32:26;;;;;;;8.15;1.58;;;15.50;99.90;;;;;;5053749;28;20129;-83
2022/07/22 05:34:52;;;;;;;9.75;1.58;;;15.50;99.90;;;;;;5053600;28;20492;-82
2022/07/22 05:37:18;;;;;;;6.88;1.20;;;15.50;99.90;;;;;;5053601;28;20045;-82
2022/07/22 05:39:43;;;;;;;7.32;1.33;;;15.90;99.90;;;;;;5054003;28;20083;-83
2022/07/22 05:42:09;;;;;;;8.52;1.52;;;15.50;99.90;;;;;;5073197;28;20052;-83
2022/07/22 05:44:35;;;;;;;12.43;1.90;;;15.50;99.90;;;;;;5073161;28;20083;-83
2022/07/22 05:47:01;;;;;;;7.82;1.40;;;15.60;99.90;;;;;;5059137;28;20045;-81
2022/07/22 05:49:26;;;;;;;6.53;1.17;;;15.80;99.90;;;;;;5053472;28;20062;-83
2022/07/22 05:51:53;;;;;;;8.15;1.33;;;15.70;99.90;;;;;;5053027;28;20040;-81
2022/07/22 05:54:19;;;;;;;10.45;1.52;;;15.70;99.90;;;;;;5053086;28;20075;-82
2022/07/22 05:56:45;;;;;;;8.50;1.40;;;15.70;99.90;;;;;;5052980;28;20052;-83
2022/07/22 05:59:11;;;;;;;6.63;2.38;;;16.10;99.90;;;;;;5060714;28;20052;-81
2022/07/22 06:01:37;;;;;;;7.30;1.60;;;15.80;99.90;;;;;;5072435;28;20053;-80
2022/07/22 06:04:02;;;;;;;10.60;1.30;;;15.80;99.90;;;;;;5072794;28;20041;-81
2022/07/22 06:06:28;;;;;;;11.18;1.30;;;15.90;99.90;;;;;;5072976;28;20041;-82
2022/07/22 06:08:54;;;;;;;5.32;1.25;;;16.10;99.90;;;;;;5072905;28;20048;-82
2022/07/22 06:11:19;;;;;;;8.88;1.73;;;15.90;99.90;;;;;;5072669;28;20506;-82
2022/07/22 06:13:45;;;;;;;11.05;1.90;;;16.20;99.90;;;;;;5061985;28;20064;-81
2022/07/22 06:16:11;;;;;;;5.70;1.40;;;16.10;99.90;;;;;;5052445;28;20061;-81
2022/07/22 06:18:37;;;;;;;9.60;1.70;;;16.10;99.90;;;;;;5050938;28;20048;-79
2022/07/22 06:21:04;;;;;;;8.18;1.20;;;16.10;99.90;;;;;;5052647;28;20072;-81
2022/07/22 06:23:29;;;;;;;6.30;1.38;;;16.20;99.90;;;;;;5052617;28;20063;-84
2022/07/22 06:25:55;;;;;;;8.23;1.50;;;16.20;99.90;;;;;;5052440;28;20045;-83
2022/07/22 06:28:21;;;;;;;9.32;2.40;;;16.20;99.90;;;;;;5051084;28;20515;-81
2022/07/22 06:30:46;;;;;;;7.40;1.50;;;16.20;99.90;;;;;;5052334;28;20056;-81
2022/07/22 06:33:12;;;;;;;6.90;1.13;;;16.30;99.90;;;;;;5066008;28;20048;-79
2022/07/22 06:35:40;;;;;;;9.23;1.73;;;16.30;99.90;;;;;;5070639;28;20094;-81
2022/07/22 06:38:05;;;;;;;7.88;1.27;;;16.30;99.90;;;;;;5052379;28;20107;-83
2022/07/22 06:40:32;;;;;;;9.20;1.88;;;16.50;99.90;;;;;;5052432;28;20049;-82
2022/07/22 06:42:58;;;;;;;6.82;1.30;;;16.40;99.90;;;;;;5053305;28;20408;-82
2022/07/22 06:45:24;;;;;;;9.50;1.50;;;16.40;99.90;;;;;;5052320;28;20102;-84
2022/07/22 06:47:49;;;;;;;10.25;1.60;;;16.50;99.90;;;;;;5052179;28;20045;-83
2022/07/22 06:50:15;;;;;;;11.77;1.73;;;16.50;99.90;;;;;;5052171;28;20037;-81
2022/07/22 06:52:42;;;;;;;5.85;1.45;;;16.50;99.90;;;;;;5052461;28;20056;-83
2022/07/22 06:55:08;;;;;;;8.93;1.67;;;16.60;99.90;;;;;;5052260;28;20477;-81
2022/07/22 06:57:34;;;;;;;12.68;1.73;;;16.60;99.90;;;;;;5053174;28;20094;-83
2022/07/22 07:00:01;;;;;;;6.25;1.25;;;16.60;99.90;;;;;;5053318;28;20048;-83
2022/07/22 07:02:27;;;;;;;8.50;1.30;;;16.70;99.90;;;;;;5032686;28;20042;-81
2022/07/22 07:04:52;;;;;;;7.03;1.38;;;16.70;99.90;;;;;;5031850;28;20145;-83
2022/07/22 07:07:18;;;;;;;7.28;1.20;;;16.80;99.90;;;;;;5031855;28;20148;-82
2022/07/22 07:09:44;;;;;;;7.85;1.50;;;17.10;99.90;;;;;;5031953;28;20056;-81
2022/07/22 07:12:10;;;;;;;8.10;1.42;;;17.00;99.90;;;;;;5032010;28;20519;-82
2022/07/22 07:14:35;;;;;;;5.18;1.10;;;17.00;99.90;;;;;;5039678;28;20111;-81
2022/07/22 07:17:01;;;;;;;6.60;1.88;;;17.20;99.90;;;;;;5051706;28;20037;-80
2022/07/22 07:19:27;;;;;;;12.60;1.52;;;17.10;99.90;;;;;;5051600;28;20069;-80
2022/07/22 07:21:52;;;;;;;8.10;1.38;;;17.10;99.90;;;;;;5051788;28;20145;-82
2022/07/22 07:24:18;;;;;;;11.48;1.85;;;17.20;99.90;;;;;;5051676;28;20440;-85
2022/07/22 07:26:46;;;;;;;6.75;1.27;;;17.30;99.90;;;;;;5058492;28;20590;-83
2022/07/22 07:29:12;;;;;;;5.18;1.20;;;17.30;99.90;;;;;;5068657;28;20044;-78
2022/07/22 07:31:37;;;;;;;5.60;1.27;;;17.40;99.90;;;;;;5056890;28;20044;-84
2022/07/22 07:34:03;;;;;;;8.15;1.20;;;17.30;99.90;;;;;;5051356;28;20789;-81
2022/07/22 07:36:29;;;;;;;9.02;1.73;;;17.40;99.90;;;;;;5050903;28;20049;-82
2022/07/22 07:38:55;;;;;;;7.80;1.25;;;17.40;99.90;;;;;;5050126;28;20061;-84
2022/07/22 07:41:21;;;;;;;25.77;2.40;;;17.50;99.90;;;;;;5051311;28;20401;-83
2022/07/22 07:43:47;;;;;;;5.50;1.00;;;17.50;99.90;;;;;;5051165;28;20055;-84
2022/07/22 07:46:13;;;;;;;6.30;1.10;;;17.70;99.90;;;;;;5050801;28;20037;-85
2022/07/22 07:48:39;;;;;;;7.72;1.10;;;17.70;99.90;;;;;;5051034;28;20080;-86
2022/07/22 07:51:05;;;;;;;7.25;1.00;;;17.60;99.90;;;;;;5051187;28;20048;-82
2022/07/22 07:53:30;;;;;;;9.20;1.25;;;17.60;99.90;;;;;;5051017;28;20888;-83
2022/07/22 07:55:56;;;;;;;7.78;1.13;;;17.50;99.90;;;;;;5050701;28;20116;-81
2022/07/22 07:58:22;;;;;;;12.85;1.00;;;17.50;99.90;;;;;;5033236;28;20061;-81
2022/07/22 08:00:47;;;;;;;10.25;1.90;;;17.60;99.90;;;;;;5050542;28;20396;-81
2022/07/22 08:03:13;;;;;;;8.60;1.35;;;17.50;99.90;;;;;;5050686;28;20047;-82
2022/07/22 08:05:39;;;;;;;6.50;1.35;;;17.60;99.90;;;;;;5050093;28;20045;-83
2022/07/22 08:08:06;;;;;;;7.70;2.13;;;17.50;99.90;;;;;;5050312;28;20045;-82
2022/07/22 08:10:31;;;;;;;4.85;1.20;;;17.60;99.90;;;;;;5050391;28;20041;-77
2022/07/22 08:12:57;;;;;;;6.03;1.40;;;17.70;99.90;;;;;;5048963;28;20110;-79
2022/07/22 08:15:24;;;;;;;8.88;1.02;;;17.70;99.90;;;;;;5050359;28;20045;-79
2022/07/22 08:17:50;;;;;;;5.15;1.25;;;17.80;99.90;;;;;;5058696;28;20048;-80
2022/07/22 08:20:15;;;;;;;6.43;1.00;;;17.80;99.90;;;;;;5053908;28;20044;-79
2022/07/22 08:22:41;;;;;;;7.95;1.08;;;18.10;99.90;;;;;;5050272;28;20052;-81
2022/07/22 08:25:08;;;;;;;6.00;0.85;;;17.90;99.90;;;;;;5065741;28;20094;-80
2022/07/22 08:27:34;;;;;;;5.55;1.02;;;17.90;99.90;;;;;;5070281;28;20041;-79
2022/07/22 08:30:04;;;;;;;4.90;1.00;;;17.90;99.90;;;;;;5067647;28;20067;-75
2022/07/22 08:32:30;;;;;;;6.07;1.10;;;17.90;99.90;;;;;;5040410;28;20500;-78
2022/07/22 08:34:55;;;;;;;3.95;1.27;;;17.90;99.90;;;;;;5030114;28;20099;-80
2022/07/22 08:37:21;;;;;;;5.13;0.90;;;18.20;99.90;;;;;;5030078;28;20050;-77
2022/07/22 08:39:46;;;;;;;8.13;1.00;;;17.90;99.90;;;;;;5030062;28;20045;-80
2022/07/22 08:42:13;;;;;;;8.25;1.00;;;17.90;99.90;;;;;;5029769;28;20046;-78
2022/07/22 08:44:39;;;;;;;5.32;1.10;;;18.00;99.90;;;;;;5030278;28;20076;-82
2022/07/22 08:47:05;;;;;;;6.40;1.08;;;17.90;99.90;;;;;;5029907;28;20552;-80
2022/07/22 08:49:31;;;;;;;5.78;0.88;;;17.80;99.90;;;;;;5028941;28;20136;-85
2022/07/22 08:51:57;;;;;;;5.30;0.75;;;17.80;99.90;;;;;;5029979;28;20050;-82
2022/07/22 08:54:23;;;;;;;8.70;1.08;;;17.90;99.90;;;;;;5028581;28;20410;-82
2022/07/22 08:56:50;;;;;;;6.07;1.20;;;17.80;99.90;;;;;;5029420;28;20081;-82
2022/07/22 08:59:16;;;;;;;4.95;0.80;;;17.90;99.90;;;;;;5011824;28;20129;-81
2022/07/22 09:02:00;;;;;;;5.57;1.00;;;17.90;99.90;;;;;;5029859;28;20136;-82
2022/07/22 09:04:26;;;;;;;6.13;0.90;;;17.80;99.90;;;;;;5029870;28;20427;-85
2022/07/22 09:06:52;;;;;;;6.18;1.17;;;17.90;99.90;;;;;;5029962;28;20136;-81
2022/07/22 09:09:32;;;;;;;5.43;1.10;;;17.90;99.90;;;;;;5028212;28;20136;-85
2022/07/22 09:12:06;;;;;;;7.82;0.93;;;17.90;99.90;;;;;;5028437;28;20053;-84
2022/07/22 09:14:46;;;;;;;7.22;0.85;;;18.00;99.90;;;;;;5029610;28;20088;-81
2022/07/22 09:17:35;;;;;;;6.57;0.90;;;18.10;99.90;;;;;;5029657;28;20045;-81
2022/07/22 09:20:14;;;;;;;7.07;1.02;;;18.10;99.90;;;;;;5029801;28;20073;-83
2022/07/22 09:22:45;;;;;;;4.72;0.73;;;18.10;99.90;;;;;;5029848;28;20060;-81
2022/07/22 09:25:31;;;;;;;5.80;0.70;;;18.00;99.90;;;;;;5029291;28;20087;-80
2022/07/22 09:28:06;;;;;;;6.88;0.90;;;18.20;99.90;;;;;;5029762;28;20453;-81
2022/07/22 09:30:40;;;;;;;3.53;0.60;;;18.20;99.90;;;;;;5029931;28;20556;-83
2022/07/22 09:33:06;;;;;;;4.05;0.55;;;18.20;99.90;;;;;;5028368;28;20041;-82
2022/07/22 09:35:32;;;;;;;5.65;0.77;;;18.20;99.90;;;;;;5029768;28;20427;-85
2022/07/22 09:38:03;;;;;;;6.07;0.60;;;18.20;99.90;;;;;;5028437;28;20041;-85
2022/07/22 09:40:49;;;;;;;2.17;0.60;;;18.10;99.90;;;;;;5028073;28;20115;-82
2022/07/22 09:43:18;;;;;;;6.68;1.95;;;18.20;99.90;;;;;;5028461;28;20061;-83
2022/07/22 09:45:45;;;;;;;5.57;0.70;;;18.30;99.90;;;;;;5028557;28;20048;-83
2022/07/22 09:48:12;;;;;;;4.22;0.75;;;18.30;99.90;;;;;;5029447;28;20504;-82
2022/07/22 09:50:37;;;;;;;2.30;0.82;;;18.40;99.90;;;;;;5029678;28;20060;-84
2022/07/22 09:53:03;;;;;;;4.45;0.47;;;18.50;99.90;;;;;;5029655;28;20049;-84
2022/07/22 09:55:29;;;;;;;4.53;0.70;;;18.50;99.90;;;;;;5029241;28;20042;-84
2022/07/22 09:57:57;;;;;;;3.97;0.63;;;18.60;99.90;;;;;;5029575;28;20051;-83
2022/07/22 10:00:25;;;;;;;2.95;0.50;;;18.60;99.90;;;;;;5029673;28;20441;-87
2022/07/22 10:02:59;;;;;;;1.77;0.50;;;18.60;99.90;;;;;;5029530;28;20065;-79
2022/07/22 10:05:34;;;;;;;1.20;0.40;;;18.70;99.90;;;;;;5029631;28;20112;-82
2022/07/22 10:08:01;;;;;;;2.78;0.50;;;18.90;99.90;;;;;;5030312;28;20045;-85
2022/07/22 10:10:28;;;;;;;1.17;0.40;;;19.10;99.90;;;;;;5032801;28;20448;-83
2022/07/22 10:12:56;;;;;;;2.15;0.47;;;19.10;99.90;;;;;;5033138;28;20057;-88
2022/07/22 10:15:24;;;;;;;2.58;0.45;;;19.10;99.90;;;;;;5033118;28;20129;-84
2022/07/22 10:17:56;;;;;;;1.40;0.50;;;19.30;99.90;;;;;;5032814;28;20520;-83
2022/07/22 10:20:24;;;;;;;6.35;0.73;;;19.20;99.90;;;;;;5031566;28;20084;-87
2022/07/22 10:23:00;;;;;;;6.85;1.05;;;19.30;99.90;;;;;;5032711;28;20050;-82
2022/07/22 10:25:31;;;;;;;2.15;0.60;;;19.10;99.90;;;;;;5032542;28;20050;-81
2022/07/22 10:28:04;;;;;;;1.48;0.43;;;19.10;99.90;;;;;;5032600;28;20096;-77
2022/07/22 10:30:36;;;;;;;7.25;0.95;;;19.00;99.90;;;;;;5035210;28;20041;-80
2022/07/22 10:33:17;;;;;;;5.78;0.88;;;18.90;99.90;;;;;;5052647;28;20049;-82
2022/07/22 10:35:43;;;;;;;4.70;0.50;;;19.00;99.90;;;;;;5056263;28;20131;-82
2022/07/22 10:38:10;;;;;;;2.22;0.63;;;19.00;99.90;;;;;;5067476;28;20467;-84
2022/07/22 10:40:46;;;;;;;3.83;0.45;;;18.90;99.90;;;;;;5052345;28;20087;-87
2022/07/22 10:43:14;;;;;;;7.22;0.90;;;19.00;99.90;;;;;;5052421;28;20522;-84
2022/07/22 10:45:47;;;;;;;6.07;0.65;;;18.80;99.90;;;;;;5054917;28;20063;-77
2022/07/22 10:48:16;;;;;;;6.60;0.80;;;18.90;99.90;;;;;;5064387;28;20488;-82
2022/07/22 10:50:44;;;;;;;6.90;0.73;;;18.90;99.90;;;;;;5052148;28;20127;-84
2022/07/22 10:53:24;;;;;;;2.85;0.52;;;19.10;99.90;;;;;;5050885;28;20122;-79
2022/07/22 10:56:13;;;;;;;2.95;0.60;;;19.10;99.90;;;;;;5052332;28;20055;-82
2022/07/22 10:58:40;;;;;;;1.58;0.55;;;19.30;99.90;;;;;;5051837;28;20053;-82
2022/07/22 11:01:08;;;;;;;2.90;0.50;;;19.40;99.90;;;;;;5052094;28;20041;-85
2022/07/22 11:03:35;;;;;;;1.67;0.30;;;19.50;99.90;;;;;;5052732;28;20119;-83
2022/07/22 11:06:15;;;;;;;2.05;0.60;;;19.50;99.90;;;;;;5052793;28;20045;-82
2022/07/22 11:08:41;;;;;;;4.50;0.60;;;19.80;99.90;;;;;;5052093;28;20088;-77
2022/07/22 11:11:06;;;;;;;3.78;0.70;;;19.90;99.90;;;;;;5063543;28;20036;-84
2022/07/22 11:13:40;;;;;;;1.58;0.40;;;20.00;99.90;;;;;;5071540;28;20381;-88
2022/07/22 11:16:16;;;;;;;3.77;0.63;;;20.10;99.90;;;;;;5071980;28;20455;-86
2022/07/22 11:18:54;;;;;;;1.92;0.60;;;20.20;99.90;;;;;;5037451;28;20060;-82
2022/07/22 11:21:22;;;;;;;3.80;0.60;;;20.30;99.90;;;;;;5052127;28;20453;-85
2022/07/22 11:23:50;;;;;;;3.88;0.70;;;20.20;99.90;;;;;;5051827;28;20053;-82
2022/07/22 11:26:23;;;;;;;7.25;0.80;;;20.30;99.90;;;;;;5051962;28;20455;-84
2022/07/22 11:28:49;;;;;;;4.57;0.60;;;20.40;99.90;;;;;;5065232;28;20135;-85
2022/07/22 11:31:17;;;;;;;5.40;0.60;;;20.40;99.90;;;;;;5071478;28;20131;-83
2022/07/22 11:33:44;;;;;;;4.45;0.63;;;20.50;99.90;;;;;;5043272;28;20052;-85
2022/07/22 11:36:10;;;;;;;7.82;0.65;;;20.60;99.90;;;;;;5056058;28;20154;-84
2022/07/22 11:38:48;;;;;;;4.35;0.60;;;20.70;99.90;;;;;;5050163;28;20056;-88
2022/07/22 11:41:16;;;;;;;6.63;0.57;;;20.60;99.90;;;;;;5051744;28;20489;-86
2022/07/22 11:43:44;;;;;;;4.13;0.45;;;20.50;99.90;;;;;;5052861;28;20040;-89
2022/07/22 11:46:10;;;;;;;4.15;0.40;;;20.50;99.90;;;;;;5070993;28;20047;-84
2022/07/22 11:48:37;;;;;;;2.67;0.50;;;20.40;99.90;;;;;;5072904;28;20048;-91
2022/07/22 11:51:04;;;;;;;4.15;0.50;;;20.30;99.90;;;;;;5071184;28;20492;-83
2022/07/22 11:53:30;;;;;;;4.20;0.50;;;20.40;99.90;;;;;;5056206;28;20139;-84
2022/07/22 11:56:00;;;;;;;3.22;0.43;;;20.40;99.90;;;;;;5051279;28;20112;-84
2022/07/22 11:58:37;;;;;;;2.42;0.43;;;20.40;99.90;;;;;;5061213;28;20113;-86
2022/07/22 12:01:08;;;;;;;1.42;0.35;;;20.50;99.90;;;;;;5071056;28;20040;-82
2022/07/22 12:03:36;;;;;;;3.30;0.50;;;20.50;99.90;;;;;;5070438;28;20045;-82
2022/07/22 12:06:07;;;;;;;4.00;0.45;;;20.50;99.90;;;;;;5070760;28;20502;-81
2022/07/22 12:08:34;;;;;;;6.47;0.60;;;20.60;99.90;;;;;;5070889;28;20078;-82
2022/07/22 12:11:00;;;;;;;3.95;0.47;;;20.80;99.90;;;;;;5066253;28;20044;-81
2022/07/22 12:13:32;;;;;;;3.17;0.40;;;20.70;99.90;;;;;;5049201;28;20118;-86
2022/07/22 12:15:58;;;;;;;2.78;0.35;;;20.60;99.90;;;;;;5050607;28;20396;-80
2022/07/22 12:18:26;;;;;;;3.25;0.50;;;20.70;99.90;;;;;;5049370;28;20049;-81
2022/07/22 12:20:53;;;;;;;2.10;0.35;;;20.80;99.90;;;;;;5050782;28;20037;-79
2022/07/22 12:23:21;;;;;;;8.15;0.50;;;20.80;99.90;;;;;;5055665;28;20514;-82
2022/07/22 12:26:04;;;;;;;1.23;0.38;;;20.80;99.90;;;;;;5052475;28;20049;-83
2022/07/22 12:28:30;;;;;;;2.25;0.85;;;20.70;99.90;;;;;;5050411;28;20041;-79
2022/07/22 12:30:56;;;;;;;3.78;0.40;;;20.70;99.90;;;;;;5049641;28;20051;-78
2022/07/22 12:33:22;;;;;;;1.95;0.40;;;20.60;99.90;;;;;;5059814;28;20050;-81
2022/07/22 12:36:07;;;;;;;1.60;0.30;;;20.60;99.90;;;;;;5070319;28;20071;-81
2022/07/22 12:38:33;;;;;;;;;;;20.60;99.90;;;;;;5070483;28;20045;-78
2022/07/22 12:41:29;;;;;;;3.20;0.40;;;20.50;99.90;;;;;;5070210;28;20337;-78
2022/07/22 12:43:55;;;;;;;3.65;0.52;;;20.50;99.90;;;;;;5070021;28;20080;-81